Gaylordsville, Connecticut
Current Conditions -  °F | °C
As of 4:53 PM on Sunday 25 Jan 2015 (Local Time) from KDXR Reporting Station
Clear Clear  
Wind Chill: 26°   Ceiling: Unl
Heat Index: 32°   Visibility: 10mi
Dew Point: 10°   Wind: 7mph
Humidity: 40%   Direction: NA
Pressure: 29.82"   Gusts: NA
Location:  41.65°N, 73.48°W
Report Text: KDXR 252153Z VRB06KT 10SM CLR 00/M12 A2982 RMK AO2 SLP101 T00001122
Loading
Personal Weather Stations






























Interactive Weather Map New forecast layout! Learn more

10-Day Weather Forecast

Advertisements
Track Severe Weather on mobile